Time;durP1;ratioP1;P1;durP2;ratioP2;P2;SDS_P1;SDS_P2;PMS_P1;PMS_P2;Temp;Humidity;BMP_temperature;BMP_pressure;BME280_temperature;BME280_humidity;BME280_pressure;Samples;Min_cycle;Max_cycle;Signal;HPM_P1;HPM_P2
2021/12/31 00:02:10;;;;;;;0.00;0.00;;;11.90;99.90;;;;;;5089518;28;20039;-80
2021/12/31 00:04:36;;;;;;;0.00;0.00;;;11.90;99.90;;;;;;5056008;28;20523;-80
2021/12/31 00:07:03;;;;;;;0.00;0.00;;;11.90;99.90;;;;;;5073206;28;20051;-82
2021/12/31 00:09:30;;;;;;;0.00;0.00;;;11.90;99.90;;;;;;5072781;28;20455;-80
2021/12/31 00:11:57;;;;;;;0.00;0.00;;;11.90;99.90;;;;;;5072463;28;20040;-80
2021/12/31 00:14:24;;;;;;;0.00;0.00;;;11.90;99.90;;;;;;5056904;28;20063;-79
2021/12/31 00:16:50;;;;;;;0.00;0.00;;;11.90;99.90;;;;;;5089047;28;20489;-80
2021/12/31 00:19:17;;;;;;;0.00;0.00;;;11.90;99.90;;;;;;5089180;28;20424;-79
2021/12/31 00:21:48;;;;;;;0.63;0.25;;;11.90;99.90;;;;;;5089398;28;20052;-82
2021/12/31 00:24:14;;;;;;;0.00;0.00;;;11.90;99.90;;;;;;5073144;28;20090;-80
2021/12/31 00:26:41;;;;;;;0.00;0.00;;;11.90;99.90;;;;;;5072567;28;20037;-82
2021/12/31 00:29:08;;;;;;;0.00;0.00;;;11.90;99.90;;;;;;5072595;28;20037;-82
2021/12/31 00:31:35;;;;;;;0.00;0.00;;;12.00;99.90;;;;;;5088808;28;20140;-80
2021/12/31 00:34:01;;;;;;;0.00;0.00;;;11.90;99.90;;;;;;5072673;28;20123;-82
2021/12/31 00:36:45;;;;;;;0.05;0.05;;;12.00;99.90;;;;;;5089463;28;20044;-81
2021/12/31 00:39:14;;;;;;;0.13;0.03;;;12.00;99.90;;;;;;5089118;28;20037;-82
2021/12/31 00:41:42;;;;;;;0.00;0.00;;;12.00;99.90;;;;;;5071792;28;20044;-80
2021/12/31 00:44:09;;;;;;;0.00;0.00;;;12.00;99.90;;;;;;5088803;28;20028;-80
2021/12/31 00:46:36;;;;;;;0.00;0.00;;;12.00;99.90;;;;;;5072260;28;20041;-82
2021/12/31 00:49:03;;;;;;;0.00;0.00;;;12.00;99.90;;;;;;5089096;28;20481;-79
2021/12/31 00:51:30;;;;;;;0.00;0.00;;;12.00;99.90;;;;;;5105379;28;20045;-80
2021/12/31 00:53:57;;;;;;;0.00;0.00;;;12.00;99.90;;;;;;5071869;28;20047;-79
2021/12/31 00:56:24;;;;;;;0.00;0.00;;;12.00;99.90;;;;;;5055949;28;20076;-82
2021/12/31 00:58:50;;;;;;;0.10;0.08;;;12.00;99.90;;;;;;5072100;28;20032;-81
2021/12/31 01:01:20;;;;;;;0.00;0.00;;;12.00;99.90;;;;;;5072145;28;20402;-79
2021/12/31 01:03:48;;;;;;;0.00;0.00;;;12.00;99.90;;;;;;5105001;28;20572;-81
2021/12/31 01:06:15;;;;;;;0.00;0.00;;;12.00;99.90;;;;;;5088932;28;20051;-82
2021/12/31 01:08:42;;;;;;;0.00;0.00;;;12.00;99.90;;;;;;5088692;28;20404;-79
2021/12/31 01:11:11;;;;;;;0.00;0.00;;;12.00;99.90;;;;;;5055766;28;20102;-82
2021/12/31 01:13:52;;;;;;;0.00;0.00;;;12.10;99.90;;;;;;5088557;28;20409;-80
2021/12/31 01:16:21;;;;;;;0.10;0.10;;;12.00;99.90;;;;;;5074389;28;20401;-80
2021/12/31 01:21:20;;;;;;;0.00;0.00;;;12.10;99.90;;;;;;5088831;28;20439;-81
2021/12/31 01:23:48;;;;;;;0.00;0.00;;;12.10;99.90;;;;;;5074493;28;20037;-81
2021/12/31 01:26:15;;;;;;;0.00;0.00;;;12.10;99.90;;;;;;5092539;28;20100;-80
2021/12/31 01:28:43;;;;;;;0.00;0.00;;;12.00;99.90;;;;;;5075895;28;20048;-81
2021/12/31 01:31:09;;;;;;;0.00;0.00;;;12.00;99.90;;;;;;5075728;28;20044;-81
2021/12/31 01:33:36;;;;;;;0.00;0.00;;;12.00;99.90;;;;;;5075471;28;20044;-81
2021/12/31 01:36:05;;;;;;;0.00;0.00;;;12.00;99.90;;;;;;5075654;28;20125;-79
2021/12/31 01:38:32;;;;;;;0.00;0.00;;;12.00;99.90;;;;;;5092220;28;20033;-81
2021/12/31 01:40:58;;;;;;;0.00;0.00;;;12.00;99.90;;;;;;5108673;28;20041;-82
2021/12/31 01:43:25;;;;;;;0.00;0.00;;;12.00;99.90;;;;;;5092111;28;20055;-79
2021/12/31 01:45:55;;;;;;;0.28;0.20;;;12.10;99.90;;;;;;5092007;28;20127;-81
2021/12/31 01:50:50;;;;;;;0.03;0.03;;;12.00;99.90;;;;;;5108339;28;20076;-81
2021/12/31 01:53:18;;;;;;;0.00;0.00;;;12.00;99.90;;;;;;5092020;28;20044;-80
2021/12/31 01:55:45;;;;;;;0.00;0.00;;;12.00;99.90;;;;;;5058454;28;20713;-81
2021/12/31 01:58:15;;;;;;;0.00;0.00;;;12.00;99.90;;;;;;5075469;28;20032;-79
2021/12/31 02:00:41;;;;;;;0.00;0.00;;;12.00;99.90;;;;;;5108503;28;20036;-79
2021/12/31 02:03:08;;;;;;;0.00;0.00;;;12.00;99.90;;;;;;5108473;28;20386;-81
2021/12/31 02:05:35;;;;;;;0.00;0.00;;;12.00;99.90;;;;;;5075308;28;20806;-81
2021/12/31 02:08:03;;;;;;;0.10;0.10;;;12.00;99.90;;;;;;5075353;28;20390;-79
2021/12/31 02:10:30;;;;;;;0.03;0.03;;;12.00;99.90;;;;;;5092196;28;20055;-81
2021/12/31 02:12:57;;;;;;;0.00;0.00;;;12.00;99.90;;;;;;5074790;28;20032;-81
2021/12/31 02:15:26;;;;;;;0.00;0.00;;;12.00;99.90;;;;;;5074987;28;20386;-81
2021/12/31 02:17:53;;;;;;;0.00;0.00;;;12.00;99.90;;;;;;5091256;28;20040;-81
2021/12/31 02:20:20;;;;;;;0.00;0.00;;;12.00;99.90;;;;;;5091390;28;20056;-79
2021/12/31 02:22:55;;;;;;;0.00;0.00;;;12.00;99.90;;;;;;5074525;28;20048;-79
2021/12/31 02:25:24;;;;;;;0.00;0.00;;;12.00;99.90;;;;;;5108440;28;20117;-81
2021/12/31 02:27:51;;;;;;;0.00;0.00;;;12.00;99.90;;;;;;5107834;28;20455;-81
2021/12/31 02:30:18;;;;;;;0.00;0.00;;;12.00;99.90;;;;;;5074797;28;20147;-81
2021/12/31 02:32:44;;;;;;;0.00;0.00;;;12.10;99.90;;;;;;5091035;28;20060;-81
2021/12/31 02:35:11;;;;;;;0.00;0.00;;;12.00;99.90;;;;;;5074235;28;20389;-79
2021/12/31 02:37:38;;;;;;;0.00;0.00;;;12.00;99.90;;;;;;5107393;28;20400;-79
2021/12/31 02:40:09;;;;;;;0.00;0.00;;;12.00;99.90;;;;;;5058255;28;20040;-81
2021/12/31 02:42:35;;;;;;;0.00;0.00;;;12.00;99.90;;;;;;5107645;28;20048;-79
2021/12/31 02:45:03;;;;;;;0.00;0.00;;;12.00;99.90;;;;;;5073972;28;20036;-79
2021/12/31 02:47:30;;;;;;;0.17;0.17;;;12.00;99.90;;;;;;5090882;28;20497;-79
2021/12/31 02:49:56;;;;;;;0.52;0.10;;;12.00;99.90;;;;;;5090652;28;20056;-79
2021/12/31 02:52:23;;;;;;;0.00;0.00;;;12.00;99.90;;;;;;5091142;28;20040;-80
2021/12/31 02:54:53;;;;;;;0.00;0.00;;;12.00;99.90;;;;;;5090215;28;20070;-81
2021/12/31 02:57:20;;;;;;;0.00;0.00;;;12.00;99.90;;;;;;5090814;28;20080;-81
2021/12/31 02:59:47;;;;;;;0.00;0.00;;;12.00;99.90;;;;;;5090579;28;20066;-79
2021/12/31 03:02:14;;;;;;;0.00;0.00;;;12.00;99.90;;;;;;5057586;28;20040;-81
2021/12/31 03:04:43;;;;;;;0.00;0.00;;;12.00;99.90;;;;;;5074184;28;20489;-80
2021/12/31 03:07:11;;;;;;;0.00;0.00;;;12.00;99.90;;;;;;5073765;28;20044;-80
2021/12/31 03:09:43;;;;;;;0.00;0.00;;;12.00;99.90;;;;;;5057755;28;20044;-81
2021/12/31 03:12:11;;;;;;;0.03;0.03;;;12.00;99.90;;;;;;5107515;28;20051;-79
2021/12/31 03:14:41;;;;;;;0.00;0.00;;;12.00;99.90;;;;;;5090308;28;20040;-80
2021/12/31 03:17:09;;;;;;;0.00;0.00;;;12.10;99.90;;;;;;5107069;28;20045;-81
2021/12/31 03:19:36;;;;;;;0.10;0.10;;;12.10;99.90;;;;;;5089888;28;20729;-81
2021/12/31 03:22:04;;;;;;;0.00;0.00;;;12.10;99.90;;;;;;5106474;28;20062;-81
2021/12/31 03:24:31;;;;;;;0.00;0.00;;;12.10;99.90;;;;;;5090310;28;20039;-79
2021/12/31 03:26:58;;;;;;;0.10;0.10;;;12.10;99.90;;;;;;5090111;28;20048;-81
2021/12/31 03:29:25;;;;;;;0.00;0.00;;;12.10;99.90;;;;;;5073647;28;20097;-81
2021/12/31 03:31:52;;;;;;;0.05;0.05;;;12.20;99.90;;;;;;5056269;28;20036;-80
2021/12/31 03:34:19;;;;;;;0.00;0.00;;;12.20;99.90;;;;;;5073517;28;20075;-81
2021/12/31 03:36:46;;;;;;;0.00;0.00;;;12.20;99.90;;;;;;5089398;28;20075;-81
2021/12/31 03:39:12;;;;;;;0.00;0.00;;;12.20;99.90;;;;;;5057312;28;20036;-79
2021/12/31 03:41:39;;;;;;;0.00;0.00;;;12.30;99.90;;;;;;5056815;28;20561;-81
2021/12/31 03:44:06;;;;;;;0.00;0.00;;;12.30;99.90;;;;;;5056235;28;20042;-79
2021/12/31 03:46:33;;;;;;;0.10;0.10;;;12.30;99.90;;;;;;5105701;28;20045;-79
2021/12/31 03:49:00;;;;;;;0.00;0.00;;;12.30;99.90;;;;;;5073071;28;20501;-81
2021/12/31 03:51:27;;;;;;;0.00;0.00;;;12.30;99.90;;;;;;5106416;28;20045;-81
2021/12/31 03:53:53;;;;;;;0.00;0.00;;;12.30;99.90;;;;;;5072669;28;20567;-79
2021/12/31 03:56:22;;;;;;;0.00;0.00;;;12.40;99.90;;;;;;5073453;28;20493;-79
2021/12/31 03:58:49;;;;;;;0.75;0.22;;;12.40;99.90;;;;;;5106214;28;20079;-81
2021/12/31 04:01:16;;;;;;;0.00;0.00;;;12.40;99.90;;;;;;5072901;28;20575;-79
2021/12/31 04:03:42;;;;;;;0.00;0.00;;;12.40;99.90;;;;;;5061419;28;20044;-81
2021/12/31 04:06:09;;;;;;;0.00;0.00;;;12.40;99.90;;;;;;5064667;28;20091;-80
2021/12/31 04:08:36;;;;;;;0.00;0.00;;;12.40;99.90;;;;;;5078337;28;20098;-81
2021/12/31 04:11:04;;;;;;;0.00;0.00;;;12.40;99.90;;;;;;5062966;28;20489;-79
2021/12/31 04:13:30;;;;;;;0.00;0.00;;;12.30;99.90;;;;;;5079985;28;20036;-79
2021/12/31 04:15:57;;;;;;;0.00;0.00;;;12.40;99.90;;;;;;5076925;28;20052;-81
2021/12/31 04:18:26;;;;;;;0.00;0.00;;;12.40;99.90;;;;;;5084054;28;20120;-81
2021/12/31 04:20:56;;;;;;;0.10;0.10;;;12.40;99.90;;;;;;5089112;28;20460;-79
2021/12/31 04:23:30;;;;;;;0.05;0.00;;;12.40;99.90;;;;;;5106114;28;20041;-79
2021/12/31 04:25:58;;;;;;;0.00;0.00;;;12.30;99.90;;;;;;5090137;28;20051;-81
2021/12/31 04:28:26;;;;;;;0.00;0.00;;;12.40;99.90;;;;;;5072896;28;20420;-81
2021/12/31 04:30:53;;;;;;;0.00;0.00;;;12.40;99.90;;;;;;5088636;28;20039;-81
2021/12/31 04:33:20;;;;;;;0.00;0.00;;;12.40;99.90;;;;;;5088921;28;20048;-79
2021/12/31 04:35:46;;;;;;;0.00;0.00;;;12.40;99.90;;;;;;5071711;28;20123;-79
2021/12/31 04:38:13;;;;;;;0.00;0.00;;;12.30;99.90;;;;;;5088860;28;20037;-79
2021/12/31 04:40:40;;;;;;;0.00;0.00;;;12.30;99.90;;;;;;5072700;28;20093;-81
2021/12/31 04:43:07;;;;;;;0.00;0.00;;;12.40;99.90;;;;;;5105224;28;20048;-79
2021/12/31 04:45:33;;;;;;;0.10;0.10;;;12.40;99.90;;;;;;5101810;28;20041;-81
2021/12/31 04:48:01;;;;;;;0.00;0.00;;;12.40;99.90;;;;;;5089062;28;20040;-79
2021/12/31 04:50:28;;;;;;;0.00;0.00;;;12.40;99.90;;;;;;5074914;28;20052;-79
2021/12/31 04:52:55;;;;;;;0.00;0.00;;;12.40;99.90;;;;;;5090358;28;20036;-79
2021/12/31 04:55:22;;;;;;;0.00;0.00;;;12.40;99.90;;;;;;5088963;28;20504;-80
2021/12/31 04:57:49;;;;;;;0.00;0.00;;;12.50;99.90;;;;;;5104763;28;20040;-80
2021/12/31 05:00:17;;;;;;;0.00;0.00;;;12.50;99.90;;;;;;5072044;28;20524;-79
2021/12/31 05:02:43;;;;;;;0.00;0.00;;;12.50;99.90;;;;;;5072188;28;20520;-81
2021/12/31 05:05:11;;;;;;;0.00;0.00;;;12.50;99.90;;;;;;5105202;28;20032;-81
2021/12/31 05:07:38;;;;;;;0.00;0.00;;;12.60;99.90;;;;;;5105402;28;20102;-80
2021/12/31 05:10:05;;;;;;;0.00;0.00;;;12.50;99.90;;;;;;5071755;28;20499;-81
2021/12/31 05:12:35;;;;;;;0.00;0.00;;;12.60;99.90;;;;;;5072444;28;20102;-79
2021/12/31 05:15:02;;;;;;;0.00;0.00;;;12.60;99.90;;;;;;5088339;28;20080;-79
2021/12/31 05:17:29;;;;;;;0.00;0.00;;;12.60;99.90;;;;;;5083111;28;20090;-81
2021/12/31 05:19:56;;;;;;;0.00;0.00;;;12.60;99.90;;;;;;5081802;28;20057;-81
2021/12/31 05:22:22;;;;;;;0.13;0.10;;;12.60;99.90;;;;;;5059830;28;20135;-79
2021/12/31 05:24:49;;;;;;;0.00;0.00;;;12.60;99.90;;;;;;5075858;28;20443;-79
2021/12/31 05:27:16;;;;;;;0.10;0.10;;;12.60;99.90;;;;;;5079265;28;20118;-79
2021/12/31 05:29:43;;;;;;;0.00;0.00;;;12.60;99.90;;;;;;5092823;28;20033;-81
2021/12/31 05:32:09;;;;;;;0.00;0.00;;;12.60;99.90;;;;;;5084482;28;20041;-81
2021/12/31 05:34:36;;;;;;;0.00;0.00;;;12.50;99.90;;;;;;5068207;28;20048;-79
2021/12/31 05:37:03;;;;;;;0.00;0.00;;;12.50;99.90;;;;;;5084384;28;20037;-81
2021/12/31 05:39:30;;;;;;;0.10;0.10;;;12.50;99.90;;;;;;5068468;28;20087;-81
2021/12/31 05:41:56;;;;;;;0.00;0.00;;;12.50;99.90;;;;;;5068136;28;20110;-79
2021/12/31 05:44:23;;;;;;;0.10;0.10;;;12.50;99.90;;;;;;5084481;28;20044;-79
2021/12/31 05:46:52;;;;;;;0.00;0.00;;;12.50;99.90;;;;;;5051366;28;20060;-80
2021/12/31 05:49:20;;;;;;;0.00;0.00;;;12.50;99.90;;;;;;5051979;28;20044;-79
2021/12/31 05:51:47;;;;;;;0.00;0.00;;;12.50;99.90;;;;;;5084733;28;20052;-81
2021/12/31 05:54:13;;;;;;;0.00;0.00;;;12.50;99.90;;;;;;5067988;28;20041;-79
2021/12/31 05:56:40;;;;;;;0.00;0.00;;;12.60;99.90;;;;;;5051607;28;20048;-79
2021/12/31 05:59:07;;;;;;;0.00;0.00;;;12.50;99.90;;;;;;5067815;28;20044;-81
2021/12/31 06:01:33;;;;;;;0.00;0.00;;;12.50;99.90;;;;;;5084641;28;20041;-81
2021/12/31 06:04:00;;;;;;;0.00;0.00;;;12.50;99.90;;;;;;5051355;28;20044;-79
2021/12/31 06:06:27;;;;;;;0.00;0.00;;;12.50;99.90;;;;;;5084624;28;20559;-81
2021/12/31 06:08:53;;;;;;;0.00;0.00;;;12.50;99.90;;;;;;5052420;28;20103;-81
2021/12/31 06:11:20;;;;;;;0.00;0.00;;;12.50;99.90;;;;;;5071705;28;20490;-79
2021/12/31 06:13:54;;;;;;;0.00;0.00;;;12.50;99.90;;;;;;5055087;28;20489;-79
2021/12/31 06:16:21;;;;;;;0.00;0.00;;;12.50;99.90;;;;;;5072480;28;20041;-81
2021/12/31 06:18:47;;;;;;;0.10;0.10;;;12.50;99.90;;;;;;5087696;28;20041;-79
2021/12/31 06:21:14;;;;;;;0.00;0.00;;;12.60;99.90;;;;;;5070727;28;20092;-79
2021/12/31 06:23:41;;;;;;;0.00;0.00;;;12.50;99.90;;;;;;5071156;28;20098;-79
2021/12/31 06:26:09;;;;;;;0.00;0.00;;;12.60;99.90;;;;;;5087797;28;20083;-79
2021/12/31 06:28:36;;;;;;;0.00;0.00;;;12.50;99.90;;;;;;5071164;28;20048;-81
2021/12/31 06:31:03;;;;;;;0.00;0.00;;;12.60;99.90;;;;;;5070495;28;20144;-79
2021/12/31 06:33:29;;;;;;;0.00;0.00;;;12.50;99.90;;;;;;5087813;28;20049;-79
2021/12/31 06:35:56;;;;;;;0.00;0.00;;;12.50;99.90;;;;;;5086962;28;20045;-81
2021/12/31 06:38:23;;;;;;;0.00;0.00;;;12.50;99.90;;;;;;5087714;28;20075;-80
2021/12/31 06:40:49;;;;;;;0.00;0.00;;;12.60;99.90;;;;;;5054576;28;20045;-81
2021/12/31 06:43:16;;;;;;;0.00;0.00;;;12.60;99.90;;;;;;5070726;28;20405;-79
2021/12/31 06:45:43;;;;;;;0.00;0.00;;;12.50;99.90;;;;;;5088238;28;20068;-79
2021/12/31 06:48:09;;;;;;;0.00;0.00;;;12.50;99.90;;;;;;5053871;28;20132;-81
2021/12/31 06:50:36;;;;;;;0.00;0.00;;;12.50;99.90;;;;;;5070729;28;20045;-79
2021/12/31 06:53:03;;;;;;;0.00;0.00;;;12.50;99.90;;;;;;5070229;28;20037;-81
2021/12/31 06:55:30;;;;;;;0.00;0.00;;;12.50;99.90;;;;;;5087332;28;20037;-79
2021/12/31 06:57:57;;;;;;;0.00;0.00;;;12.50;99.90;;;;;;5070377;28;20757;-81
2021/12/31 07:00:24;;;;;;;0.00;0.00;;;12.50;99.90;;;;;;5071069;28;20040;-79
2021/12/31 07:02:50;;;;;;;0.00;0.00;;;12.50;99.90;;;;;;5070594;28;20037;-81
2021/12/31 07:05:17;;;;;;;0.00;0.00;;;12.50;99.90;;;;;;5069817;28;20037;-80
2021/12/31 07:07:44;;;;;;;0.00;0.00;;;12.50;99.90;;;;;;5070461;28;20045;-81
2021/12/31 07:10:11;;;;;;;0.00;0.00;;;12.50;99.90;;;;;;5053586;28;20048;-81
2021/12/31 07:12:37;;;;;;;0.00;0.00;;;12.50;99.90;;;;;;5070405;28;20133;-79
2021/12/31 07:15:04;;;;;;;0.00;0.00;;;12.40;99.90;;;;;;5070142;28;20048;-81
2021/12/31 07:17:31;;;;;;;0.00;0.00;;;12.50;99.90;;;;;;5069969;28;20413;-79
2021/12/31 07:19:57;;;;;;;0.00;0.00;;;12.50;99.90;;;;;;5068719;28;20051;-81
2021/12/31 07:22:24;;;;;;;0.00;0.00;;;12.50;99.90;;;;;;5069741;28;20040;-81
2021/12/31 07:24:51;;;;;;;0.00;0.00;;;12.50;99.90;;;;;;5086840;28;20043;-79
2021/12/31 07:27:18;;;;;;;0.00;0.00;;;12.50;99.90;;;;;;5069556;28;20041;-81
2021/12/31 07:29:44;;;;;;;0.00;0.00;;;12.40;99.90;;;;;;5070140;28;20037;-81
2021/12/31 07:32:11;;;;;;;0.00;0.00;;;12.40;99.90;;;;;;5085997;28;20063;-79
2021/12/31 07:34:37;;;;;;;0.00;0.00;;;12.40;99.90;;;;;;5069765;28;20045;-81
2021/12/31 07:37:04;;;;;;;0.00;0.00;;;12.40;99.90;;;;;;5085786;28;20115;-81
2021/12/31 07:39:32;;;;;;;0.00;0.00;;;12.40;99.90;;;;;;5069630;28;20044;-81
2021/12/31 07:41:59;;;;;;;0.00;0.00;;;12.30;99.90;;;;;;5071236;28;20033;-81
2021/12/31 07:44:26;;;;;;;0.17;0.17;;;12.40;99.90;;;;;;5069175;28;20052;-79
2021/12/31 07:46:53;;;;;;;0.00;0.00;;;12.40;99.90;;;;;;5052960;28;20045;-79
2021/12/31 07:49:19;;;;;;;0.00;0.00;;;12.40;99.90;;;;;;5069045;28;20040;-79
2021/12/31 07:51:46;;;;;;;0.00;0.00;;;12.40;99.90;;;;;;5069364;28;20037;-81
2021/12/31 07:54:15;;;;;;;0.00;0.00;;;12.30;99.90;;;;;;5069155;28;20041;-82
2021/12/31 07:56:41;;;;;;;0.00;0.00;;;12.30;99.90;;;;;;5069432;28;20045;-79
2021/12/31 07:59:08;;;;;;;0.00;0.00;;;12.30;99.90;;;;;;5096780;28;20032;-79
2021/12/31 08:01:35;;;;;;;0.00;0.00;;;12.30;99.90;;;;;;5064034;28;20553;-81
2021/12/31 08:04:02;;;;;;;0.08;0.08;;;12.30;99.90;;;;;;5075463;28;20039;-80
2021/12/31 08:06:29;;;;;;;0.00;0.00;;;12.30;99.90;;;;;;5099700;28;20041;-79
2021/12/31 08:08:55;;;;;;;0.00;0.00;;;12.30;99.90;;;;;;5083602;28;20056;-81
2021/12/31 08:11:22;;;;;;;0.00;0.00;;;12.20;99.90;;;;;;5075451;28;20064;-79
2021/12/31 08:13:49;;;;;;;0.00;0.00;;;12.20;99.90;;;;;;5066561;28;20054;-81
2021/12/31 08:16:16;;;;;;;0.00;0.00;;;12.20;99.90;;;;;;5056725;28;20099;-80
2021/12/31 08:18:42;;;;;;;0.10;0.10;;;12.20;99.90;;;;;;5069538;28;20425;-79
2021/12/31 08:21:09;;;;;;;0.00;0.00;;;12.30;99.90;;;;;;5068865;28;20053;-79
2021/12/31 08:23:36;;;;;;;0.00;0.00;;;12.30;99.90;;;;;;5071871;28;20057;-81
2021/12/31 08:26:05;;;;;;;0.00;0.00;;;12.30;99.90;;;;;;5085095;28;20111;-79
2021/12/31 08:28:31;;;;;;;0.00;0.00;;;12.30;99.90;;;;;;5069277;28;20135;-79
2021/12/31 08:30:58;;;;;;;0.00;0.00;;;12.20;99.90;;;;;;5085022;28;20454;-81
2021/12/31 08:33:26;;;;;;;0.00;0.00;;;12.20;99.90;;;;;;5068127;28;20064;-81
2021/12/31 08:35:55;;;;;;;0.00;0.00;;;12.30;99.90;;;;;;5085146;28;20090;-79
2021/12/31 08:38:22;;;;;;;0.00;0.00;;;12.30;99.90;;;;;;5085648;28;20084;-80
2021/12/31 08:40:49;;;;;;;0.00;0.00;;;12.30;99.90;;;;;;5065813;28;20400;-80
2021/12/31 08:43:16;;;;;;;0.00;0.00;;;12.30;99.90;;;;;;5088657;28;20048;-81
2021/12/31 08:45:43;;;;;;;0.08;0.08;;;12.30;99.90;;;;;;5089193;28;20129;-80
2021/12/31 08:48:10;;;;;;;0.00;0.00;;;12.30;99.90;;;;;;5072215;28;20032;-80
2021/12/31 08:50:37;;;;;;;0.00;0.00;;;12.20;99.90;;;;;;5072518;28;20507;-80
2021/12/31 08:53:04;;;;;;;0.00;0.00;;;12.30;99.90;;;;;;5071492;28;20497;-82
2021/12/31 08:55:31;;;;;;;0.00;0.00;;;12.20;99.90;;;;;;5061670;28;20032;-83
2021/12/31 08:57:57;;;;;;;0.10;0.10;;;12.30;99.90;;;;;;5085413;28;20512;-81
2021/12/31 09:00:24;;;;;;;0.10;0.10;;;12.30;99.90;;;;;;5085376;28;20048;-83
2021/12/31 09:02:51;;;;;;;0.00;0.00;;;12.20;99.90;;;;;;5088358;28;20042;-81
2021/12/31 09:05:18;;;;;;;0.00;0.00;;;12.30;99.90;;;;;;5057732;28;20033;-81
2021/12/31 09:07:45;;;;;;;0.00;0.00;;;12.30;99.90;;;;;;5083517;28;20057;-83
2021/12/31 09:10:12;;;;;;;0.03;0.03;;;12.30;99.90;;;;;;5089046;28;20576;-83
2021/12/31 09:12:39;;;;;;;0.00;0.00;;;12.30;99.90;;;;;;5087884;28;20044;-83
2021/12/31 09:15:07;;;;;;;0.08;0.08;;;12.30;99.90;;;;;;5085965;28;20060;-81
2021/12/31 09:17:33;;;;;;;0.00;0.00;;;12.40;99.90;;;;;;5072128;28;20048;-83
2021/12/31 09:20:00;;;;;;;0.00;0.00;;;12.40;99.90;;;;;;5071868;28;20048;-83
2021/12/31 09:22:27;;;;;;;0.00;0.00;;;12.30;99.90;;;;;;5088300;28;20047;-81
2021/12/31 09:24:55;;;;;;;0.00;0.00;;;12.40;99.90;;;;;;5072178;28;20032;-81
2021/12/31 09:27:22;;;;;;;0.00;0.00;;;12.40;99.90;;;;;;5104900;28;20493;-81
2021/12/31 09:29:49;;;;;;;0.00;0.00;;;12.40;99.90;;;;;;5071893;28;20128;-83
2021/12/31 09:32:15;;;;;;;0.00;0.00;;;12.40;99.90;;;;;;5071516;28;20040;-83
2021/12/31 09:34:46;;;;;;;0.00;0.00;;;12.40;99.90;;;;;;5088992;28;20043;-80
2021/12/31 09:37:13;;;;;;;0.65;0.22;;;12.40;99.90;;;;;;5088076;28;20090;-80
2021/12/31 09:39:40;;;;;;;0.00;0.00;;;12.40;99.90;;;;;;5071982;28;20048;-81
2021/12/31 09:42:08;;;;;;;0.00;0.00;;;12.40;99.90;;;;;;5088062;28;20089;-83
2021/12/31 09:44:37;;;;;;;0.00;0.00;;;12.40;99.90;;;;;;5090735;28;20123;-80
2021/12/31 09:47:10;;;;;;;0.00;0.00;;;12.40;99.90;;;;;;5075632;28;20040;-83
2021/12/31 09:49:38;;;;;;;0.00;0.00;;;12.40;99.90;;;;;;5076479;28;20040;-82
2021/12/31 09:52:08;;;;;;;0.00;0.00;;;12.40;99.90;;;;;;5092017;28;20063;-82
2021/12/31 09:54:35;;;;;;;0.00;0.00;;;12.40;99.90;;;;;;5075576;28;20036;-81
2021/12/31 09:57:04;;;;;;;0.00;0.00;;;12.40;99.90;;;;;;5075616;28;20041;-80
2021/12/31 09:59:31;;;;;;;0.00;0.00;;;12.50;99.90;;;;;;5060367;28;20040;-83
2021/12/31 10:01:58;;;;;;;0.10;0.10;;;12.50;99.90;;;;;;5079550;28;20404;-81
2021/12/31 10:04:57;;;;;;;0.00;0.00;;;12.50;99.90;;;;;;5091620;28;20040;-85
2021/12/31 10:07:28;;;;;;;0.00;0.00;;;12.50;99.90;;;;;;5091835;28;20037;-81
2021/12/31 10:10:13;;;;;;;0.00;0.00;;;12.50;99.90;;;;;;5092314;28;20130;-81
2021/12/31 10:12:49;;;;;;;0.00;0.00;;;12.40;99.90;;;;;;5092051;28;20041;-82
2021/12/31 10:15:18;;;;;;;0.00;0.00;;;12.40;99.90;;;;;;5091455;28;20048;-79
2021/12/31 10:17:46;;;;;;;0.00;0.00;;;12.40;99.90;;;;;;5091898;28;20117;-83
2021/12/31 10:20:14;;;;;;;0.00;0.00;;;12.40;99.90;;;;;;5108012;28;20145;-79
2021/12/31 10:22:41;;;;;;;0.00;0.00;;;12.30;99.90;;;;;;5091999;28;20048;-82
2021/12/31 10:25:22;;;;;;;0.00;0.00;;;12.40;99.90;;;;;;5091701;28;20044;-79
2021/12/31 10:27:51;;;;;;;0.10;0.10;;;12.40;99.90;;;;;;5108509;28;20040;-79
2021/12/31 10:30:22;;;;;;;0.00;0.00;;;12.40;99.90;;;;;;5091527;28;20044;-82
2021/12/31 10:32:50;;;;;;;0.00;0.00;;;12.40;99.90;;;;;;5074831;28;20087;-79
2021/12/31 10:35:22;;;;;;;0.00;0.00;;;12.40;99.90;;;;;;5074567;28;20044;-79
2021/12/31 10:37:57;;;;;;;0.10;0.10;;;12.40;99.90;;;;;;5088825;28;20047;-79
2021/12/31 10:40:25;;;;;;;;;;;12.40;99.90;;;;;;5091549;28;20044;-83
2021/12/31 10:43:15;;;;;;;0.00;0.00;;;12.40;99.90;;;;;;5091480;28;20007;-79
2021/12/31 10:46:11;;;;;;;0.00;0.00;;;12.30;99.90;;;;;;5091371;28;20037;-83
2021/12/31 10:48:54;;;;;;;0.00;0.00;;;12.20;99.90;;;;;;5075305;28;20473;-83
2021/12/31 10:51:47;;;;;;;0.10;0.10;;;12.20;99.90;;;;;;5091339;28;20028;-79
2021/12/31 10:54:30;;;;;;;0.00;0.00;;;12.10;99.90;;;;;;5090665;28;20584;-79
2021/12/31 10:56:58;;;;;;;0.00;0.00;;;12.10;99.90;;;;;;5091192;28;20565;-83
2021/12/31 10:59:25;;;;;;;0.10;0.10;;;12.10;99.90;;;;;;5091146;28;20036;-79
2021/12/31 11:01:52;;;;;;;0.20;0.10;;;12.10;99.90;;;;;;5074917;28;20036;-78
2021/12/31 11:04:21;;;;;;;0.00;0.00;;;12.10;99.90;;;;;;5074387;28;20436;-79
2021/12/31 11:06:48;;;;;;;0.00;0.00;;;12.10;99.90;;;;;;5091505;28;20048;-83
2021/12/31 11:09:16;;;;;;;0.20;0.10;;;12.10;99.90;;;;;;5107392;28;20044;-86
2021/12/31 11:11:44;;;;;;;0.00;0.00;;;12.10;99.90;;;;;;5074617;28;20040;-87
2021/12/31 11:14:11;;;;;;;0.00;0.00;;;12.10;99.90;;;;;;5076592;28;20044;-87
2021/12/31 11:16:40;;;;;;;0.13;0.10;;;12.10;99.90;;;;;;5091045;28;20058;-81
2021/12/31 11:19:09;;;;;;;0.00;0.00;;;12.10;99.90;;;;;;5082531;28;20110;-85
2021/12/31 11:21:37;;;;;;;0.15;0.10;;;12.00;99.90;;;;;;5084918;28;20053;-85
2021/12/31 11:24:30;;;;;;;0.00;0.00;;;12.10;99.90;;;;;;5062059;28;20048;-80
2021/12/31 11:26:58;;;;;;;0.00;0.00;;;12.00;99.90;;;;;;5079584;28;20445;-86
2021/12/31 11:29:35;;;;;;;0.10;0.10;;;12.00;99.90;;;;;;5070894;28;20028;-85
2021/12/31 11:32:03;;;;;;;0.00;0.00;;;12.00;99.90;;;;;;5094584;28;20414;-86
2021/12/31 11:34:30;;;;;;;0.00;0.00;;;12.10;99.90;;;;;;5065709;28;20546;-80
2021/12/31 11:36:57;;;;;;;0.00;0.00;;;12.10;99.90;;;;;;5090037;28;20131;-80
2021/12/31 11:39:26;;;;;;;0.00;0.00;;;12.10;99.90;;;;;;5085242;28;20037;-86
2021/12/31 11:41:56;;;;;;;0.30;0.20;;;12.00;99.90;;;;;;5090140;28;20033;-86
2021/12/31 11:44:25;;;;;;;0.00;0.00;;;11.90;99.90;;;;;;5074851;28;20067;-81
2021/12/31 11:47:14;;;;;;;0.20;0.05;;;11.90;99.90;;;;;;5066593;28;20115;-80
2021/12/31 11:49:42;;;;;;;0.03;0.03;;;11.80;99.90;;;;;;5080019;28;20079;-81
2021/12/31 11:52:23;;;;;;;0.20;0.20;;;11.80;99.90;;;;;;5084495;28;20044;-86
2021/12/31 11:55:16;;;;;;;0.00;0.00;;;11.70;99.90;;;;;;5091703;28;20044;-80
2021/12/31 11:57:43;;;;;;;0.00;0.00;;;11.70;99.90;;;;;;5100224;28;20049;-85
2021/12/31 12:00:25;;;;;;;0.00;0.00;;;11.70;99.90;;;;;;5073680;28;20036;-85
2021/12/31 12:02:51;;;;;;;1.00;0.55;;;11.60;99.90;;;;;;5106801;28;20051;-86
2021/12/31 12:05:20;;;;;;;0.03;0.03;;;11.60;99.90;;;;;;5089875;28;20040;-85
2021/12/31 12:07:49;;;;;;;0.60;0.10;;;11.60;99.90;;;;;;5089524;28;20087;-80
2021/12/31 12:10:25;;;;;;;0.00;0.00;;;11.60;99.90;;;;;;5106263;28;20099;-81
2021/12/31 12:12:56;;;;;;;0.00;0.00;;;11.50;99.90;;;;;;5090855;28;20041;-86
2021/12/31 12:15:31;;;;;;;0.00;0.00;;;11.50;99.90;;;;;;5101016;28;20037;-80
2021/12/31 12:18:00;;;;;;;0.00;0.00;;;11.50;99.90;;;;;;5089289;28;20052;-81
2021/12/31 12:20:37;;;;;;;0.47;0.30;;;11.50;99.90;;;;;;5088798;28;20048;-81
2021/12/31 12:23:16;;;;;;;0.00;0.00;;;11.50;99.90;;;;;;5087016;28;20069;-81
2021/12/31 12:25:43;;;;;;;0.10;0.10;;;11.40;99.90;;;;;;5093907;28;20036;-81
2021/12/31 12:28:11;;;;;;;0.00;0.00;;;11.50;99.90;;;;;;5072920;28;20037;-81
2021/12/31 12:30:44;;;;;;;0.00;0.00;;;11.50;99.90;;;;;;5089339;28;20072;-86
2021/12/31 12:35:41;;;;;;;0.00;0.00;;;11.50;99.90;;;;;;5085731;28;20048;-86
2021/12/31 12:38:19;;;;;;;0.10;0.10;;;11.50;99.90;;;;;;5068976;28;20080;-81
2021/12/31 12:40:57;;;;;;;0.10;0.10;;;11.50;99.90;;;;;;5085871;28;20044;-86
2021/12/31 12:43:28;;;;;;;0.00;0.00;;;11.40;99.90;;;;;;5085814;28;20045;-81
2021/12/31 12:46:01;;;;;;;0.10;0.10;;;11.40;99.90;;;;;;5085690;28;20551;-81
2021/12/31 12:48:42;;;;;;;0.00;0.00;;;11.40;99.90;;;;;;5085452;28;20481;-86
2021/12/31 12:51:13;;;;;;;0.00;0.00;;;11.40;99.90;;;;;;5085974;28;20118;-81
2021/12/31 12:53:46;;;;;;;0.00;0.00;;;11.40;99.90;;;;;;5074903;28;20044;-86
2021/12/31 12:56:18;;;;;;;0.00;0.00;;;11.40;99.90;;;;;;5105728;28;20489;-81
2021/12/31 12:59:01;;;;;;;0.10;0.10;;;11.40;99.90;;;;;;5105856;28;20045;-81
2021/12/31 13:01:42;;;;;;;0.00;0.00;;;11.40;99.90;;;;;;5063218;28;20036;-85
2021/12/31 13:04:11;;;;;;;0.00;0.00;;;11.40;99.90;;;;;;5069158;28;20052;-80